Terminal Aerodrome Forecast
Issued by NWS Charleston, WV

Current Version | Previous Version | Graphics & Text | Print | Product List | Glossary On
Versions: 1 2 3 4 5 6 7 8 9 10 11 12 13 14 15 16 17 18 19 20 21 22
000
FTUS41 KRLX 121559 AAB
TAFHTS
TAF AMD
KHTS 121559Z 1216/1312 30012G24KT 4SM -SHSN BKN025
      TEMPO 1216/1217 1SM -SN BKN012
     FM121700 30012G24KT P6SM -SHSN BKN035
      TEMPO 1217/1221 1SM -SHSN BKN015
     FM130400 29008G19KT P6SM SCT050=

USA.gov is the U.S. government's official web portal to all federal, state and local government web resources and services.